Portada
METAR-TAF:

METAR-TAF

Aeroports :

Malaca, Malàisia

latitud: 02-16N, longitud: 102-15E, altitud: 11 m

Observació

L'informe es va fer fa 34 minuts, a les 13:00 UTC
Vent 7 kt del Est/Nord-Est, variant entre Nord/Nord-Est i Est/Sud-Est
Temperatura 29°C
Humitat 70%
Pressió 1010 hPa
Visibilitat 10 km o més
Escasses núvols a una alçada de 2800 ft

METAR: WMKM 261300Z 07007KT 020V110 9999 FEW028 29/23 Q1010

Hora: 21:34 (13:34 UTC)

Pronòstic

L'informe es va fer fa 2 hores i 34 minuts, a les 11:00 UTC
Pronòstic vàlid del 26 a les 12 UTC al 27 a les 12 UTC
Vent 8 kt del Nord-Est
Visibilitat 10 km o més
Escasses núvols a una alçada de 2800 ft

TAF: WMKM 261100Z 2612/2712 05008KT 9999 FEW028

Observacions i pronòstics meteorològics de més de 4000 aeroports (METAR i TAF).

Les estacions disponibles són els punts grocs i vermells al mapa.

Posi el ratolí al punt desitjat per veure el nom de l'estació.

Feu clic per veure les observacions i els pronòstics meteorològics.

Per canviar el mapa: feu clic els botons verds amb una creu de color negre per apropar; al botó verd amb un guió per allunyar la imatge; o en les fletxes verdes per a mapes adjacents.


METAR-TAF: